St John, Virgin Islands
Current Conditions -  °F | °C
As of 9:00 PM on Tuesday 25 Nov 2014 (Local Time) from TUPJ Reporting Station
Scattered Clouds Scattered Clouds  
Wind Chill: 81°   Ceiling: Unl
Heat Index: 85°   Visibility: 6mi
Dew Point: 72°   Wind: 16mph
Humidity: 74%   Direction: 120°ESE
Pressure: 30.03"   Gusts: NA
Location:  18.3333°N, 64.7943°W
Report Text: TUPJ 260100Z 12014KT 9999 SCT022 27/22 Q1017 RMK A3004
Loading
Personal Weather Stations






























Interactive Weather Map New forecast layout! Learn more

10-Day Weather Forecast

Advertisements
Track Severe Weather on mobile